Terminal Aerodrome Forecast
Issued by NWS Portland, OR

Home | Current Version | Previous Version | Text Only | Print | Product List | Glossary On
Versions: 1 2 3 4 5 6 7 8 9 10 11 12 13 14 15 16 17 18 19 20 21 22 23 24 25 26 27 28 29 30 31
000
FTUS46 KPQR 241315 AAA
TAFTTD
TAF AMD
KTTD 241315Z 2413/2512 VRB03KT P6SM BKN015 OVC025
     FM241900 28003KT P6SM SCT020 OVC035
     FM242200 31005KT P6SM FEW035 BKN045
     FM250400 VRB03KT P6SM OVC025=

USA.gov is the U.S. government's official web portal to all federal, state and local government web resources and services.